Time;durP1;ratioP1;P1;durP2;ratioP2;P2;SDS_P1;SDS_P2;PMS_P1;PMS_P2;Temp;Humidity;BMP_temperature;BMP_pressure;BME280_temperature;BME280_humidity;BME280_pressure;Samples;Min_cycle;Max_cycle;Signal;HPM_P1;HPM_P2
2021/09/21 00:01:05;;;;;;;13.23;11.70;;;12.90;99.90;;;;;;5028650;28;20195;-86
2021/09/21 00:03:32;;;;;;;12.70;11.40;;;12.90;99.90;;;;;;5028339;28;20173;-86
2021/09/21 00:05:58;;;;;;;15.47;12.87;;;12.90;99.90;;;;;;5028912;28;20201;-86
2021/09/21 00:08:27;;;;;;;14.17;11.90;;;12.80;99.90;;;;;;5045660;28;20269;-86
2021/09/21 00:10:56;;;;;;;13.27;11.57;;;12.80;99.90;;;;;;5045873;28;20206;-86
2021/09/21 00:13:22;;;;;;;13.83;12.43;;;12.90;99.90;;;;;;5027890;28;20185;-86
2021/09/21 00:15:48;;;;;;;16.00;12.83;;;12.90;99.90;;;;;;5027910;28;20206;-86
2021/09/21 00:18:14;;;;;;;19.67;13.20;;;12.80;99.90;;;;;;5045955;28;20221;-86
2021/09/21 00:20:40;;;;;;;13.90;11.40;;;12.80;99.90;;;;;;5028358;28;20189;-86
2021/09/21 00:23:05;;;;;;;15.17;12.50;;;12.80;99.90;;;;;;5019399;28;20251;-87
2021/09/21 00:25:31;;;;;;;15.53;12.07;;;12.80;99.90;;;;;;5045758;28;20181;-86
2021/09/21 00:27:57;;;;;;;15.50;12.57;;;12.70;99.90;;;;;;5028278;28;20183;-85
2021/09/21 00:30:23;;;;;;;12.77;11.37;;;12.70;99.90;;;;;;5046012;28;20201;-86
2021/09/21 00:33:00;;;;;;;14.60;12.10;;;12.70;99.90;;;;;;5046040;28;20672;-86
2021/09/21 00:35:26;;;;;;;16.07;13.03;;;12.70;99.90;;;;;;5045009;28;20189;-86
2021/09/21 00:37:52;;;;;;;15.30;12.63;;;12.70;99.90;;;;;;5027649;28;20178;-86
2021/09/21 00:40:18;;;;;;;13.87;11.47;;;12.70;99.90;;;;;;5007368;28;1104853;-86
2021/09/21 00:42:45;;;;;;;12.93;11.57;;;12.70;99.90;;;;;;5028684;28;20177;-86
2021/09/21 00:45:19;;;;;;;13.33;11.90;;;12.60;99.90;;;;;;5046119;28;20204;-86
2021/09/21 00:47:45;;;;;;;16.63;13.10;;;12.70;99.90;;;;;;5046252;28;20679;-86
2021/09/21 00:50:11;;;;;;;15.53;12.67;;;12.50;99.90;;;;;;5027548;28;20178;-86
2021/09/21 00:52:37;;;;;;;16.77;12.63;;;12.40;99.90;;;;;;5025618;28;20190;-86
2021/09/21 00:55:03;;;;;;;13.10;11.80;;;12.40;99.90;;;;;;5021230;28;20310;-86
2021/09/21 00:57:31;;;;;;;15.83;12.97;;;12.30;99.90;;;;;;5041618;28;20334;-85
2021/09/21 00:59:58;;;;;;;15.07;12.90;;;12.30;99.90;;;;;;5046963;28;20237;-86
2021/09/21 01:02:23;;;;;;;17.27;13.23;;;12.20;99.90;;;;;;5046309;28;20188;-86
2021/09/21 01:04:49;;;;;;;18.20;13.67;;;12.20;99.90;;;;;;5041335;28;20220;-86
2021/09/21 01:07:15;;;;;;;14.57;12.60;;;12.20;99.90;;;;;;5018723;28;20185;-86
2021/09/21 01:09:42;;;;;;;17.77;13.90;;;12.20;99.90;;;;;;5044254;28;20674;-86
2021/09/21 01:12:08;;;;;;;17.07;13.40;;;12.20;99.90;;;;;;5035945;28;20205;-87
2021/09/21 01:14:34;;;;;;;18.07;13.60;;;12.20;99.90;;;;;;5017875;28;20236;-86
2021/09/21 01:16:59;;;;;;;15.20;12.70;;;12.20;99.90;;;;;;5046986;28;20197;-86
2021/09/21 01:19:25;;;;;;;17.33;13.37;;;12.20;99.90;;;;;;5047282;28;20329;-86
2021/09/21 01:21:52;;;;;;;15.27;12.70;;;12.20;99.90;;;;;;5028835;28;20204;-85
2021/09/21 01:24:19;;;;;;;16.17;13.20;;;12.20;99.90;;;;;;5040589;28;20585;-85
2021/09/21 01:26:46;;;;;;;16.43;13.27;;;12.20;99.90;;;;;;5032417;28;20645;-86
2021/09/21 01:29:12;;;;;;;15.27;13.53;;;12.20;99.90;;;;;;5049887;28;20212;-86
2021/09/21 01:31:39;;;;;;;16.37;13.23;;;12.20;99.90;;;;;;5050054;28;20704;-86
2021/09/21 01:34:06;;;;;;;15.70;13.30;;;12.20;99.90;;;;;;5049679;28;20184;-86
2021/09/21 01:36:32;;;;;;;15.77;13.07;;;12.10;99.90;;;;;;5050173;28;20190;-86
2021/09/21 01:38:58;;;;;;;16.87;13.93;;;12.20;99.90;;;;;;5032914;28;20182;-86
2021/09/21 01:41:24;;;;;;;17.60;13.50;;;12.20;99.90;;;;;;5049126;28;20228;-86
2021/09/21 01:43:49;;;;;;;16.03;13.40;;;12.20;99.90;;;;;;5049322;28;20211;-86
2021/09/21 01:46:19;;;;;;;16.03;13.70;;;12.10;99.90;;;;;;5025782;28;20626;-86
2021/09/21 01:48:45;;;;;;;16.43;12.77;;;12.10;99.90;;;;;;5041320;28;20228;-86
2021/09/21 01:51:17;;;;;;;20.30;14.30;;;12.00;99.90;;;;;;5049305;28;20552;-86
2021/09/21 01:54:10;;;;;;;16.13;13.50;;;12.00;99.90;;;;;;5024170;28;20198;-86
2021/09/21 01:59:20;;;;;;;16.63;13.23;;;12.00;99.90;;;;;;5044307;28;20698;-86
2021/09/21 02:01:46;;;;;;;15.90;12.93;;;12.00;99.90;;;;;;5040651;28;20198;-86
2021/09/21 02:04:12;;;;;;;17.40;13.20;;;11.90;99.90;;;;;;5044144;28;20179;-86
2021/09/21 02:06:39;;;;;;;17.03;12.97;;;12.00;99.90;;;;;;5033319;28;20645;-88
2021/09/21 02:09:07;;;;;;;18.13;13.17;;;12.00;99.90;;;;;;5040217;28;20195;-86
2021/09/21 02:11:34;;;;;;;16.97;13.60;;;12.00;99.90;;;;;;5029840;28;20198;-86
2021/09/21 02:14:00;;;;;;;14.93;13.03;;;12.10;99.90;;;;;;5039549;28;20204;-86
2021/09/21 02:16:31;;;;;;;17.10;13.50;;;12.00;99.90;;;;;;5046524;28;20186;-86
2021/09/21 02:18:57;;;;;;;17.60;13.27;;;12.10;99.90;;;;;;5034032;28;20178;-86
2021/09/21 02:21:24;;;;;;;15.60;12.97;;;12.10;99.90;;;;;;5050949;28;20214;-86
2021/09/21 02:23:51;;;;;;;16.60;12.60;;;12.10;99.90;;;;;;5035471;28;20217;-86
2021/09/21 02:26:16;;;;;;;14.47;12.77;;;12.10;99.90;;;;;;5026144;28;20196;-87
2021/09/21 02:28:42;;;;;;;17.33;13.60;;;12.00;99.90;;;;;;5032144;28;20182;-86
2021/09/21 02:31:08;;;;;;;15.97;12.47;;;12.10;99.90;;;;;;5050741;28;20266;-86
2021/09/21 02:33:34;;;;;;;16.63;12.03;;;12.10;99.90;;;;;;5032955;28;20176;-86
2021/09/21 02:36:00;;;;;;;15.97;13.30;;;12.10;99.90;;;;;;5040349;28;20203;-85
2021/09/21 02:38:25;;;;;;;14.60;12.13;;;12.10;99.90;;;;;;5034098;28;20184;-85
2021/09/21 02:40:52;;;;;;;17.50;12.33;;;12.10;99.90;;;;;;5019018;28;20216;-84
2021/09/21 02:43:18;;;;;;;14.73;11.90;;;12.10;99.90;;;;;;5029576;28;20186;-86
2021/09/21 02:45:44;;;;;;;14.57;12.00;;;12.10;99.90;;;;;;5012274;28;20194;-85
2021/09/21 02:48:10;;;;;;;13.10;11.53;;;12.20;99.90;;;;;;5029806;28;20555;-86
2021/09/21 02:50:35;;;;;;;12.83;11.33;;;12.20;99.90;;;;;;5030441;28;20204;-86
2021/09/21 02:53:01;;;;;;;12.50;11.10;;;12.10;99.90;;;;;;5036600;28;20592;-86
2021/09/21 02:55:27;;;;;;;13.17;11.77;;;12.10;99.90;;;;;;5012660;28;20202;-86
2021/09/21 02:57:53;;;;;;;13.63;11.43;;;12.10;99.90;;;;;;5029245;28;20182;-86
2021/09/21 03:00:25;;;;;;;14.97;11.97;;;12.10;99.90;;;;;;5028866;28;20198;-84
2021/09/21 03:02:52;;;;;;;12.77;11.13;;;12.10;99.90;;;;;;5025772;28;20192;-87
2021/09/21 03:05:23;;;;;;;17.20;11.57;;;12.10;99.90;;;;;;5030246;28;20662;-87
2021/09/21 03:07:55;;;;;;;15.57;12.10;;;12.10;99.90;;;;;;5033967;28;20176;-87
2021/09/21 03:10:30;;;;;;;13.23;11.43;;;12.10;99.90;;;;;;5039016;28;20291;-87
2021/09/21 03:13:13;;;;;;;13.80;11.53;;;12.10;99.90;;;;;;5048023;28;20243;-86
2021/09/21 03:18:24;;;;;;;14.50;11.83;;;12.10;99.90;;;;;;5033725;28;20203;-87
2021/09/21 03:20:50;;;;;;;15.40;11.90;;;12.10;99.90;;;;;;5048028;28;20197;-86
2021/09/21 03:23:16;;;;;;;14.87;12.43;;;12.10;99.90;;;;;;5040465;28;20185;-87
2021/09/21 03:25:41;;;;;;;16.20;12.73;;;12.10;99.90;;;;;;5048322;28;20182;-86
2021/09/21 03:28:07;;;;;;;15.00;12.67;;;12.10;99.90;;;;;;5047688;28;20189;-86
2021/09/21 03:30:33;;;;;;;13.80;12.40;;;12.10;99.90;;;;;;5024816;28;20281;-87
2021/09/21 03:32:59;;;;;;;14.30;11.10;;;12.10;99.90;;;;;;5040268;28;20185;-88
2021/09/21 03:35:25;;;;;;;11.73;10.53;;;12.10;99.90;;;;;;5024898;28;20208;-87
2021/09/21 03:37:50;;;;;;;20.50;11.70;;;12.00;99.90;;;;;;5042820;28;20191;-87
2021/09/21 03:40:16;;;;;;;11.60;10.50;;;12.00;99.90;;;;;;5036153;28;20214;-87
2021/09/21 03:42:42;;;;;;;13.90;11.80;;;12.00;99.90;;;;;;5029340;22;20223;-82
2021/09/21 03:45:08;;;;;;;13.83;12.20;;;12.00;99.90;;;;;;5008744;28;20532;-82
2021/09/21 03:47:34;;;;;;;16.40;12.57;;;12.00;99.90;;;;;;5004990;28;20270;-82
2021/09/21 03:49:59;;;;;;;14.40;11.83;;;12.00;99.90;;;;;;5018691;28;20605;-82
2021/09/21 03:52:25;;;;;;;15.03;11.97;;;12.00;99.90;;;;;;5022066;28;20237;-83
2021/09/21 03:54:51;;;;;;;14.67;12.53;;;12.00;99.90;;;;;;5021998;28;20229;-82
2021/09/21 03:57:16;;;;;;;13.87;12.37;;;11.90;99.90;;;;;;5021798;28;20185;-82
2021/09/21 03:59:42;;;;;;;15.50;12.97;;;12.00;99.90;;;;;;5019189;28;20584;-83
2021/09/21 04:02:08;;;;;;;17.10;13.33;;;11.90;99.90;;;;;;4999671;28;20237;-83
2021/09/21 04:04:33;;;;;;;16.30;12.43;;;11.90;99.90;;;;;;5004681;28;20246;-82
2021/09/21 04:06:59;;;;;;;14.17;12.43;;;11.90;99.90;;;;;;5007476;28;20259;-83
2021/09/21 04:09:24;;;;;;;14.70;12.73;;;11.90;99.90;;;;;;5017458;28;20270;-82
2021/09/21 04:11:50;;;;;;;15.63;12.60;;;11.90;99.90;;;;;;5015889;28;20247;-82
2021/09/21 04:14:16;;;;;;;15.07;12.13;;;12.00;99.90;;;;;;5007230;28;20195;-82
2021/09/21 04:16:41;;;;;;;15.10;12.57;;;11.90;99.90;;;;;;5014265;28;20180;-82
2021/09/21 04:19:07;;;;;;;13.70;12.07;;;11.90;99.90;;;;;;5018682;28;20185;-82
2021/09/21 04:21:33;;;;;;;18.53;12.73;;;11.90;99.90;;;;;;5017867;28;20202;-82
2021/09/21 04:23:58;;;;;;;15.80;12.13;;;11.90;99.90;;;;;;5008369;28;20228;-82
2021/09/21 04:26:24;;;;;;;14.27;12.00;;;11.90;99.90;;;;;;5004463;28;20654;-83
2021/09/21 04:28:50;;;;;;;13.07;11.70;;;11.90;99.90;;;;;;5018184;28;20183;-82
2021/09/21 04:31:22;;;;;;;13.10;11.63;;;11.90;99.90;;;;;;5005821;28;20642;-82
2021/09/21 04:33:49;;;;;;;14.27;12.77;;;11.90;99.90;;;;;;4999010;28;20178;-81
2021/09/21 04:36:14;;;;;;;15.27;12.23;;;11.90;99.90;;;;;;5000198;28;20618;-82
2021/09/21 04:38:40;;;;;;;15.97;12.40;;;11.90;99.90;;;;;;5014035;28;20182;-82
2021/09/21 04:41:06;;;;;;;15.43;12.17;;;11.90;99.90;;;;;;5008039;28;20180;-82
2021/09/21 04:43:32;;;;;;;14.67;12.10;;;11.80;99.90;;;;;;4997865;28;20192;-80
2021/09/21 04:45:59;;;;;;;16.43;12.20;;;11.70;99.90;;;;;;5014900;28;20181;-82
2021/09/21 04:48:24;;;;;;;17.47;12.90;;;11.80;99.90;;;;;;5017747;28;20192;-82
2021/09/21 04:50:50;;;;;;;14.03;12.57;;;11.80;99.90;;;;;;5017107;28;20180;-82
2021/09/21 04:53:16;;;;;;;12.53;11.03;;;11.80;99.90;;;;;;5017399;28;20271;-81
2021/09/21 04:55:42;;;;;;;13.07;11.67;;;11.80;99.90;;;;;;5005371;28;20241;-82
2021/09/21 04:58:08;;;;;;;14.50;12.83;;;11.80;99.90;;;;;;5017018;28;20210;-80
2021/09/21 05:00:34;;;;;;;15.10;12.70;;;11.90;99.90;;;;;;5020357;28;20190;-82
2021/09/21 05:02:59;;;;;;;16.60;12.67;;;11.90;99.90;;;;;;5003710;28;20195;-82
2021/09/21 05:05:25;;;;;;;21.73;15.87;;;11.90;99.90;;;;;;5022003;28;20193;-82
2021/09/21 05:07:50;;;;;;;18.17;13.97;;;11.90;99.90;;;;;;5021859;28;20661;-82
2021/09/21 05:10:16;;;;;;;19.60;14.17;;;11.80;99.90;;;;;;5011629;28;20276;-82
2021/09/21 05:12:42;;;;;;;19.77;15.33;;;11.90;99.90;;;;;;4999200;28;20205;-82
2021/09/21 05:15:09;;;;;;;20.43;14.47;;;11.90;99.90;;;;;;5000027;28;20261;-81
2021/09/21 05:17:36;;;;;;;17.07;14.17;;;11.80;99.90;;;;;;5000995;28;20265;-81
2021/09/21 05:20:03;;;;;;;15.17;13.27;;;11.80;99.90;;;;;;5019358;28;20174;-82
2021/09/21 05:22:28;;;;;;;16.90;13.47;;;11.80;99.90;;;;;;5012425;28;20244;-81
2021/09/21 05:24:54;;;;;;;17.37;13.63;;;11.80;99.90;;;;;;4995272;28;20573;-81
2021/09/21 05:27:20;;;;;;;19.93;13.57;;;11.80;99.90;;;;;;5013311;28;20181;-81
2021/09/21 05:29:46;;;;;;;16.20;12.60;;;11.80;99.90;;;;;;5002584;28;20273;-81
2021/09/21 05:32:11;;;;;;;17.50;12.47;;;11.80;99.90;;;;;;5020369;28;20673;-81
2021/09/21 05:34:37;;;;;;;15.07;12.20;;;11.80;99.90;;;;;;5020247;28;20200;-82
2021/09/21 05:37:03;;;;;;;18.80;12.87;;;11.70;99.90;;;;;;5007590;28;20187;-82
2021/09/21 05:39:28;;;;;;;17.10;12.57;;;11.80;99.90;;;;;;5008815;28;20180;-82
2021/09/21 05:41:54;;;;;;;14.90;12.07;;;11.80;99.90;;;;;;5020534;28;20566;-82
2021/09/21 05:44:20;;;;;;;17.27;12.97;;;11.80;99.90;;;;;;5014969;28;20194;-83
2021/09/21 05:46:46;;;;;;;15.53;12.03;;;11.80;99.90;;;;;;5007817;28;20199;-82
2021/09/21 05:49:12;;;;;;;20.80;13.27;;;11.70;99.90;;;;;;5021111;28;20181;-82
2021/09/21 05:51:37;;;;;;;16.37;12.83;;;11.70;99.90;;;;;;5020960;28;20215;-82
2021/09/21 05:54:03;;;;;;;17.60;13.50;;;11.70;99.90;;;;;;5018693;28;20214;-82
2021/09/21 05:56:29;;;;;;;17.03;13.57;;;11.70;99.90;;;;;;5020878;28;20329;-83
2021/09/21 05:58:56;;;;;;;17.67;13.83;;;11.80;99.90;;;;;;5020770;28;20615;-82
2021/09/21 06:01:21;;;;;;;17.50;13.20;;;11.80;99.90;;;;;;5020098;28;20191;-82
2021/09/21 06:03:47;;;;;;;15.47;12.80;;;11.90;99.90;;;;;;5020337;28;20673;-82
2021/09/21 06:06:13;;;;;;;18.87;13.53;;;11.90;99.90;;;;;;5019243;28;20188;-82
2021/09/21 06:08:38;;;;;;;16.87;12.73;;;11.90;99.90;;;;;;5018342;28;20181;-82
2021/09/21 06:11:04;;;;;;;16.20;12.23;;;12.00;99.90;;;;;;5018607;28;20188;-82
2021/09/21 06:13:30;;;;;;;18.67;13.17;;;12.00;99.90;;;;;;5005379;28;20181;-82
2021/09/21 06:15:55;;;;;;;15.27;12.77;;;12.00;99.90;;;;;;5020114;28;20295;-82
2021/09/21 06:18:21;;;;;;;17.87;13.07;;;12.00;99.90;;;;;;5019504;28;20170;-82
2021/09/21 06:20:47;;;;;;;16.37;13.97;;;12.00;99.90;;;;;;5020650;28;20225;-82
2021/09/21 06:23:13;;;;;;;18.30;14.00;;;12.00;99.90;;;;;;5009211;28;20172;-82
2021/09/21 06:25:40;;;;;;;19.37;14.83;;;12.10;99.90;;;;;;5000764;28;20181;-80
2021/09/21 06:28:06;;;;;;;22.57;14.97;;;12.20;99.90;;;;;;5014399;28;20190;-82
2021/09/21 06:30:32;;;;;;;18.50;15.23;;;12.20;99.90;;;;;;5019094;28;20175;-82
2021/09/21 06:32:58;;;;;;;17.93;14.40;;;12.20;99.90;;;;;;5008053;28;20206;-82
2021/09/21 06:35:24;;;;;;;19.97;15.27;;;12.20;99.90;;;;;;5009730;28;20205;-83
2021/09/21 06:37:50;;;;;;;21.30;15.73;;;12.30;99.90;;;;;;5018005;28;20182;-82
2021/09/21 06:40:16;;;;;;;20.37;15.33;;;12.30;99.90;;;;;;5005373;28;20182;-82
2021/09/21 06:42:43;;;;;;;20.80;13.83;;;12.30;99.90;;;;;;5019163;28;20692;-82
2021/09/21 06:45:11;;;;;;;20.73;15.30;;;12.40;99.90;;;;;;5020350;28;20580;-82
2021/09/21 06:47:37;;;;;;;18.93;14.87;;;12.40;99.90;;;;;;4992319;28;20197;-82
2021/09/21 06:50:04;;;;;;;21.90;14.53;;;12.40;99.90;;;;;;5009452;28;20214;-82
2021/09/21 06:52:30;;;;;;;20.80;14.90;;;12.50;99.90;;;;;;5013984;28;20205;-82
2021/09/21 06:54:56;;;;;;;21.87;15.30;;;12.50;99.90;;;;;;5009258;28;20210;-82
2021/09/21 06:57:22;;;;;;;27.27;15.93;;;12.50;99.90;;;;;;5002279;28;20173;-82
2021/09/21 06:59:48;;;;;;;22.10;16.47;;;12.50;99.90;;;;;;5004198;28;20654;-82
2021/09/21 07:02:14;;;;;;;23.60;14.97;;;12.50;99.90;;;;;;5015976;28;20309;-82
2021/09/21 07:04:40;;;;;;;21.90;15.53;;;12.50;99.90;;;;;;5019475;28;20234;-82
2021/09/21 07:07:05;;;;;;;21.20;14.63;;;12.50;99.90;;;;;;5011258;28;20266;-82
2021/09/21 07:09:31;;;;;;;20.43;14.80;;;12.60;99.90;;;;;;4996757;28;20183;-82
2021/09/21 07:11:57;;;;;;;18.10;14.17;;;12.60;99.90;;;;;;5017446;28;20208;-82
2021/09/21 07:14:22;;;;;;;18.07;14.10;;;12.60;99.90;;;;;;4981755;28;20714;-82
2021/09/21 07:16:48;;;;;;;18.57;14.53;;;12.60;99.90;;;;;;4998883;28;20254;-82
2021/09/21 07:19:16;;;;;;;21.50;14.60;;;12.60;99.90;;;;;;4980456;28;20175;-81
2021/09/21 07:21:42;;;;;;;20.60;14.40;;;12.70;99.90;;;;;;4990867;28;20198;-83
2021/09/21 07:24:08;;;;;;;27.23;16.17;;;12.60;99.90;;;;;;5008997;28;20229;-82
2021/09/21 07:26:34;;;;;;;21.67;15.27;;;12.70;99.90;;;;;;5010010;28;20179;-82
2021/09/21 07:29:00;;;;;;;24.50;16.43;;;12.70;99.90;;;;;;4994381;28;20213;-81
2021/09/21 07:31:26;;;;;;;22.10;16.43;;;12.70;99.90;;;;;;4996705;28;20206;-82
2021/09/21 07:33:51;;;;;;;21.50;16.60;;;12.70;99.90;;;;;;5001811;28;20678;-82
2021/09/21 07:36:17;;;;;;;22.43;17.03;;;12.80;99.90;;;;;;4996456;28;20203;-82
2021/09/21 07:38:43;;;;;;;20.87;15.67;;;12.80;99.90;;;;;;4994067;28;20244;-82
2021/09/21 07:41:08;;;;;;;25.70;17.70;;;12.90;99.90;;;;;;4995208;28;20288;-82
2021/09/21 07:43:34;;;;;;;24.70;17.87;;;12.90;99.90;;;;;;4993354;28;20667;-82
2021/09/21 07:46:00;;;;;;;23.47;17.23;;;12.90;99.90;;;;;;4998170;28;20187;-81
2021/09/21 07:48:25;;;;;;;25.23;17.13;;;12.90;99.90;;;;;;4989303;28;20270;-82
2021/09/21 07:50:52;;;;;;;29.03;19.03;;;13.00;99.90;;;;;;4996797;28;20194;-81
2021/09/21 07:53:18;;;;;;;25.57;18.10;;;13.10;99.90;;;;;;5015389;28;20180;-82
2021/09/21 07:55:44;;;;;;;25.30;19.00;;;13.10;99.90;;;;;;5004160;28;20189;-83
2021/09/21 07:58:10;;;;;;;27.87;18.87;;;13.20;99.90;;;;;;5012421;28;20597;-82
2021/09/21 08:00:35;;;;;;;25.57;17.67;;;13.20;99.90;;;;;;5016716;28;20176;-82
2021/09/21 08:03:01;;;;;;;28.10;18.07;;;13.30;99.90;;;;;;5016764;28;20245;-82
2021/09/21 08:05:26;;;;;;;23.50;17.47;;;13.30;99.90;;;;;;5015536;28;20185;-82
2021/09/21 08:07:52;;;;;;;24.33;17.40;;;13.30;99.90;;;;;;5015646;28;20175;-82
2021/09/21 08:10:18;;;;;;;20.83;16.80;;;13.40;99.90;;;;;;5016563;28;20178;-82
2021/09/21 08:12:45;;;;;;;23.70;17.00;;;13.40;99.90;;;;;;5016565;28;20279;-82
2021/09/21 08:15:11;;;;;;;24.93;17.10;;;13.50;99.90;;;;;;5016503;28;20230;-81
2021/09/21 08:17:37;;;;;;;27.13;19.03;;;13.40;99.90;;;;;;5016630;28;20179;-82
2021/09/21 08:20:04;;;;;;;24.83;18.23;;;13.50;99.90;;;;;;5016204;28;20668;-82
2021/09/21 08:22:30;;;;;;;25.37;17.50;;;13.50;99.90;;;;;;5011553;28;20191;-83
2021/09/21 08:24:56;;;;;;;24.97;18.43;;;13.50;99.90;;;;;;5012791;28;20568;-82
2021/09/21 08:27:25;;;;;;;23.73;17.13;;;13.50;99.90;;;;;;5016878;28;20185;-82
2021/09/21 08:29:51;;;;;;;29.70;17.77;;;13.60;99.90;;;;;;5016013;28;20229;-82
2021/09/21 08:32:17;;;;;;;24.80;18.67;;;13.60;99.90;;;;;;5015457;28;20207;-83
2021/09/21 08:34:42;;;;;;;25.67;19.00;;;13.60;99.90;;;;;;5015023;28;20696;-82
2021/09/21 08:37:08;;;;;;;23.13;17.50;;;13.70;99.90;;;;;;5016044;28;20707;-82
2021/09/21 08:39:34;;;;;;;32.03;21.70;;;13.70;99.90;;;;;;5016060;28;20177;-82
2021/09/21 08:42:00;;;;;;;27.40;18.97;;;13.70;99.90;;;;;;5016060;28;20317;-82
2021/09/21 08:44:26;;;;;;;27.83;20.03;;;13.80;99.90;;;;;;5016357;28;20179;-82
2021/09/21 08:46:51;;;;;;;30.77;21.70;;;13.80;99.90;;;;;;5016138;28;20740;-82
2021/09/21 08:49:17;;;;;;;28.43;20.23;;;13.90;99.90;;;;;;5016267;28;20171;-82
2021/09/21 08:51:43;;;;;;;29.87;20.63;;;13.90;99.90;;;;;;5014679;28;20284;-82
2021/09/21 08:54:09;;;;;;;27.07;19.13;;;13.90;99.90;;;;;;5000397;28;20596;-82
2021/09/21 08:56:34;;;;;;;27.57;19.27;;;14.00;99.90;;;;;;5008842;28;20210;-82
2021/09/21 08:59:07;;;;;;;27.27;18.20;;;14.00;99.90;;;;;;4999483;28;20628;-82
2021/09/21 09:01:48;;;;;;;25.10;17.63;;;14.10;99.90;;;;;;4999827;28;20611;-81
2021/09/21 09:04:16;;;;;;;25.20;18.23;;;14.00;99.90;;;;;;4985778;28;20587;-82
2021/09/21 09:06:43;;;;;;;24.73;18.47;;;14.00;99.90;;;;;;4988141;28;20186;-81
2021/09/21 09:09:17;;;;;;;27.77;19.50;;;14.00;99.90;;;;;;4985005;28;20181;-82
2021/09/21 09:11:46;;;;;;;29.27;20.00;;;14.10;99.90;;;;;;4984669;28;20210;-82
2021/09/21 09:14:25;;;;;;;29.17;20.03;;;14.10;99.90;;;;;;4996429;28;20721;-81
2021/09/21 09:16:59;;;;;;;27.67;20.47;;;14.10;99.90;;;;;;4992550;28;20563;-82
2021/09/21 09:19:37;;;;;;;29.00;19.40;;;14.10;99.90;;;;;;4981108;28;20532;-83
2021/09/21 09:22:23;;;;;;;29.57;19.53;;;14.10;99.90;;;;;;4983493;28;20196;-81
2021/09/21 09:24:50;;;;;;;31.27;20.37;;;14.10;99.90;;;;;;4997744;28;20271;-82
2021/09/21 09:27:16;;;;;;;30.57;20.17;;;14.20;99.90;;;;;;4992115;28;20215;-82
2021/09/21 09:29:58;;;;;;;29.40;21.40;;;14.30;99.90;;;;;;4981237;28;20181;-83
2021/09/21 09:32:25;;;;;;;26.07;20.23;;;14.40;99.90;;;;;;4982009;28;20210;-82
2021/09/21 09:34:51;;;;;;;29.13;19.63;;;14.40;99.90;;;;;;4991372;28;20210;-82
2021/09/21 09:37:18;;;;;;;25.90;19.27;;;14.50;99.90;;;;;;4991936;28;20235;-82
2021/09/21 09:39:46;;;;;;;24.63;18.30;;;14.60;99.90;;;;;;4990911;28;20172;-81
2021/09/21 09:42:13;;;;;;;25.57;19.30;;;14.80;99.90;;;;;;4990009;28;20224;-82
2021/09/21 09:44:40;;;;;;;23.40;17.73;;;14.90;99.90;;;;;;4982192;28;20220;-83
2021/09/21 09:47:07;;;;;;;24.83;19.07;;;14.90;99.90;;;;;;4981239;28;20184;-82
2021/09/21 09:49:42;;;;;;;23.03;17.03;;;14.90;99.90;;;;;;4980424;28;20551;-82
2021/09/21 09:52:14;;;;;;;21.83;16.27;;;14.80;99.90;;;;;;4981672;28;20200;-82
2021/09/21 09:54:41;;;;;;;21.53;16.80;;;14.70;99.90;;;;;;4998777;28;20203;-82
2021/09/21 09:57:09;;;;;;;21.47;17.00;;;14.80;99.90;;;;;;4986565;28;20557;-84
2021/09/21 09:59:36;;;;;;;22.23;17.17;;;14.90;99.90;;;;;;4984114;28;20171;-82
2021/09/21 10:02:02;;;;;;;24.50;17.83;;;15.00;99.90;;;;;;4982362;28;20199;-82
2021/09/21 10:04:28;;;;;;;22.50;17.77;;;15.00;99.90;;;;;;4982869;28;20259;-82
2021/09/21 10:06:55;;;;;;;23.37;18.53;;;15.00;99.90;;;;;;4992582;28;20698;-82
2021/09/21 10:09:21;;;;;;;24.30;17.43;;;15.00;99.90;;;;;;4995105;28;20655;-82
2021/09/21 10:11:50;;;;;;;23.70;18.37;;;15.00;99.90;;;;;;4995545;28;20196;-82
2021/09/21 10:14:19;;;;;;;22.67;17.57;;;15.10;99.90;;;;;;4990665;28;20254;-80
2021/09/21 10:16:59;;;;;;;20.20;16.63;;;15.10;99.90;;;;;;4995455;28;20234;-80
2021/09/21 10:19:27;;;;;;;23.73;16.97;;;15.20;99.90;;;;;;4987960;28;20180;-82
2021/09/21 10:21:54;;;;;;;21.47;16.93;;;15.20;99.90;;;;;;4996167;28;20199;-82
2021/09/21 10:24:31;;;;;;;20.47;16.50;;;15.30;99.90;;;;;;4991114;28;20184;-84
2021/09/21 10:27:05;;;;;;;20.97;16.50;;;15.30;99.90;;;;;;5006120;28;20199;-83
2021/09/21 10:29:31;;;;;;;21.47;16.73;;;15.20;99.90;;;;;;4993844;28;20593;-82
2021/09/21 10:31:58;;;;;;;20.73;17.27;;;15.30;99.90;;;;;;4986281;28;20260;-82
2021/09/21 10:34:25;;;;;;;21.93;16.33;;;15.40;99.90;;;;;;4994680;28;20243;-81
2021/09/21 10:36:54;;;;;;;26.70;16.07;;;15.50;99.90;;;;;;4986941;28;20184;-82
2021/09/21 10:39:23;;;;;;;20.13;16.13;;;15.60;99.90;;;;;;4995598;28;20205;-82
2021/09/21 10:41:59;;;;;;;21.00;15.27;;;15.60;99.90;;;;;;4995787;28;20216;-82
2021/09/21 10:44:26;;;;;;;15.37;13.77;;;15.70;99.90;;;;;;4995852;28;20207;-81
2021/09/21 10:46:57;;;;;;;15.17;12.90;;;15.90;99.90;;;;;;4986126;28;20275;-82
2021/09/21 10:49:36;;;;;;;15.53;13.73;;;16.00;99.90;;;;;;4997933;28;20221;-81
2021/09/21 10:52:13;;;;;;;14.77;12.30;;;16.30;99.90;;;;;;4991292;28;20223;-81
2021/09/21 10:54:41;;;;;;;14.30;12.90;;;16.40;99.90;;;;;;4994023;28;20651;-81
2021/09/21 10:57:11;;;;;;;15.13;13.53;;;16.30;99.90;;;;;;4990893;28;20187;-81
2021/09/21 10:59:39;;;;;;;15.13;12.90;;;16.30;99.90;;;;;;4987784;28;20566;-82
2021/09/21 11:02:10;;;;;;;14.40;12.90;;;16.30;99.90;;;;;;4984997;28;20551;-81
2021/09/21 11:04:43;;;;;;;16.87;13.47;;;16.30;99.90;;;;;;4982377;28;20191;-81
2021/09/21 11:07:11;;;;;;;14.93;13.07;;;16.30;99.90;;;;;;4994311;28;20187;-82
2021/09/21 11:09:37;;;;;;;11.67;10.47;;;16.50;99.90;;;;;;4990396;28;20189;-81
2021/09/21 11:12:12;;;;;;;12.83;11.47;;;16.60;99.90;;;;;;4998215;28;20208;-81
2021/09/21 11:14:42;;;;;;;12.77;11.47;;;16.60;99.90;;;;;;4994668;28;20204;-82
2021/09/21 11:17:11;;;;;;;11.33;10.13;;;16.80;99.90;;;;;;4995076;28;20218;-82
2021/09/21 11:19:38;;;;;;;11.33;10.23;;;17.10;99.90;;;;;;4992213;28;20208;-79
2021/09/21 11:22:06;;;;;;;9.17;8.30;;;17.10;99.90;;;;;;4991862;28;20288;-82
2021/09/21 11:24:37;;;;;;;9.83;8.83;;;17.10;99.90;;;;;;4992751;28;20173;-81
2021/09/21 11:27:06;;;;;;;10.43;9.47;;;17.20;99.90;;;;;;4997162;28;20559;-82
2021/09/21 11:29:34;;;;;;;11.50;9.47;;;17.30;99.90;;;;;;4992953;28;20180;-81
2021/09/21 11:32:01;;;;;;;10.63;9.53;;;17.20;99.90;;;;;;4991014;28;20205;-82
2021/09/21 11:34:29;;;;;;;10.23;9.17;;;17.10;99.90;;;;;;4995144;28;20191;-78
2021/09/21 11:37:01;;;;;;;11.17;10.07;;;17.20;99.90;;;;;;4994134;28;20217;-81
2021/09/21 11:39:30;;;;;;;9.90;9.07;;;17.30;99.90;;;;;;4989666;28;20666;-81
2021/09/21 11:41:57;;;;;;;10.37;9.23;;;17.20;99.90;;;;;;4991133;28;20222;-81
2021/09/21 11:44:23;;;;;;;11.27;10.17;;;17.10;99.90;;;;;;4997339;28;20182;-79
2021/09/21 11:46:58;;;;;;;11.07;9.90;;;17.00;99.90;;;;;;4992446;28;20225;-80
2021/09/21 11:49:24;;;;;;;10.97;9.37;;;16.90;99.90;;;;;;4994467;28;20178;-82
2021/09/21 11:51:50;;;;;;;11.03;10.13;;;16.80;99.90;;;;;;4993705;28;20218;-81
2021/09/21 11:54:18;;;;;;;10.10;9.07;;;16.90;99.90;;;;;;4998891;28;20178;-81
2021/09/21 11:56:43;;;;;;;11.17;9.00;;;16.90;99.90;;;;;;4987539;28;20184;-81
2021/09/21 11:59:09;;;;;;;10.83;9.77;;;17.00;99.90;;;;;;4993891;28;20180;-81
2021/09/21 12:01:35;;;;;;;10.30;9.27;;;17.10;99.90;;;;;;4990928;28;20200;-80
2021/09/21 12:04:00;;;;;;;11.97;10.20;;;17.10;99.90;;;;;;4988396;28;20211;-80
2021/09/21 12:06:34;;;;;;;10.57;9.50;;;17.20;99.90;;;;;;4990650;28;20178;-79
2021/09/21 12:09:02;;;;;;;10.17;9.20;;;17.30;99.90;;;;;;4981783;28;20190;-82
2021/09/21 12:11:29;;;;;;;11.03;9.93;;;17.30;99.90;;;;;;4998433;28;20199;-80
2021/09/21 12:13:57;;;;;;;10.00;9.03;;;17.10;99.90;;;;;;4987661;28;20238;-81
2021/09/21 12:16:23;;;;;;;10.07;9.07;;;17.10;99.90;;;;;;4994908;28;20197;-81
2021/09/21 12:18:49;;;;;;;8.80;8.00;;;17.20;99.90;;;;;;4987523;28;20582;-81
2021/09/21 12:21:17;;;;;;;8.67;7.87;;;17.30;99.90;;;;;;4988201;28;20337;-81
2021/09/21 12:23:45;;;;;;;8.70;7.47;;;17.40;99.90;;;;;;5010695;28;20208;-81
2021/09/21 12:26:16;;;;;;;8.27;7.57;;;17.50;99.90;;;;;;4995068;28;20218;-81
2021/09/21 12:28:48;;;;;;;13.40;8.17;;;17.50;99.90;;;;;;4990787;28;20193;-82
2021/09/21 12:31:18;;;;;;;10.73;9.00;;;17.50;99.90;;;;;;4982554;28;20222;-81
2021/09/21 12:33:47;;;;;;;9.23;8.43;;;17.40;99.90;;;;;;4988787;28;20649;-81